createdAt,value
2022-08-19T00:00:10.727Z,8.20
2022-08-19T00:06:46.800Z,8.80
2022-08-19T00:13:12.440Z,8.40
2022-08-19T00:19:36.713Z,8.80
2022-08-19T00:26:04.398Z,8.90
2022-08-19T00:32:34.627Z,8.70
2022-08-19T00:38:59.758Z,8.20
2022-08-19T00:52:03.350Z,8.20
2022-08-19T01:04:49.840Z,8.50
2022-08-19T01:10:58.548Z,8.40
2022-08-19T01:17:08.457Z,8.80
2022-08-19T01:23:34.019Z,9.20
2022-08-19T01:29:57.866Z,8.70
2022-08-19T01:36:23.877Z,8.60
2022-08-19T01:42:48.947Z,8.60
2022-08-19T01:49:11.598Z,8.50
2022-08-19T01:55:34.206Z,8.80
2022-08-19T02:01:59.767Z,9.10
2022-08-19T02:08:24.002Z,8.40
2022-08-19T02:14:41.024Z,8.20
2022-08-19T02:21:05.517Z,8.70
2022-08-19T02:27:30.015Z,8.90
2022-08-19T02:33:47.088Z,8.40
2022-08-19T02:40:04.287Z,8.10
2022-08-19T02:46:35.345Z,8.40
2022-08-19T02:52:53.442Z,9.00
2022-08-19T02:59:22.851Z,8.30
2022-08-19T03:05:48.151Z,8.20
2022-08-19T03:12:21.301Z,8.70
2022-08-19T03:18:46.655Z,8.30
2022-08-19T03:25:04.702Z,8.60
2022-08-19T03:31:43.518Z,8.60
2022-08-19T03:38:15.393Z,9.00
2022-08-19T03:44:33.261Z,8.30
2022-08-19T03:50:58.733Z,9.00
2022-08-19T03:57:30.657Z,9.70
2022-08-19T04:03:56.169Z,9.60
2022-08-19T04:10:13.708Z,10.00
2022-08-19T04:16:35.015Z,9.90
2022-08-19T04:22:58.168Z,9.90
2022-08-19T04:29:23.479Z,10.20
2022-08-19T04:35:47.157Z,9.90
2022-08-19T04:42:21.356Z,10.00
2022-08-19T04:48:55.510Z,9.40
2022-08-19T04:55:20.030Z,9.50
2022-08-19T05:01:44.286Z,9.00
2022-08-19T05:14:10.269Z,9.10
2022-08-19T05:20:45.244Z,8.70
2022-08-19T05:27:09.478Z,9.00
2022-08-19T05:33:33.393Z,9.00
2022-08-19T05:39:57.802Z,9.00
2022-08-19T05:46:27.661Z,9.30
2022-08-19T05:52:52.535Z,9.20
2022-08-19T05:59:16.974Z,9.50
2022-08-19T06:05:49.630Z,9.60
2022-08-19T06:12:16.464Z,8.60
2022-08-19T06:18:44.517Z,9.10
2022-08-19T06:25:07.190Z,9.60
2022-08-19T06:31:34.444Z,8.80
2022-08-19T06:37:58.797Z,9.00
2022-08-19T06:44:24.420Z,8.80
2022-08-19T06:50:49.201Z,8.90
2022-08-19T06:57:14.173Z,8.70
2022-08-19T07:03:40.698Z,9.80
2022-08-19T07:10:17.603Z,9.40
2022-08-19T07:16:43.098Z,8.50
2022-08-19T07:23:07.044Z,8.70
2022-08-19T07:29:39.516Z,8.60
2022-08-19T07:36:06.545Z,8.90
2022-08-19T07:42:31.160Z,8.00
2022-08-19T07:48:54.542Z,8.60
2022-08-19T07:55:05.074Z,7.60
2022-08-19T08:01:29.457Z,7.50
2022-08-19T08:14:01.287Z,7.60
2022-08-19T08:20:19.261Z,7.50
2022-08-19T08:26:29.452Z,7.80
2022-08-19T08:32:44.690Z,8.60
2022-08-19T08:39:02.636Z,8.50
2022-08-19T08:45:41.141Z,8.10
2022-08-19T08:52:00.125Z,7.60
2022-08-19T08:58:30.829Z,7.80
2022-08-19T09:04:50.317Z,7.70
2022-08-19T09:11:16.364Z,7.00
2022-08-19T09:18:00.680Z,6.40
2022-08-19T09:24:24.913Z,7.00
2022-08-19T09:30:49.211Z,6.70
2022-08-19T09:37:00.067Z,6.40
2022-08-19T09:42:54.776Z,6.90
2022-08-19T09:48:41.156Z,6.80
2022-08-19T09:55:00.427Z,6.70
2022-08-19T10:01:25.282Z,6.60
2022-08-19T10:07:40.691Z,7.30
2022-08-19T10:13:55.312Z,7.60
2022-08-19T10:20:19.641Z,6.70
2022-08-19T10:26:09.231Z,7.10
2022-08-19T10:32:34.535Z,7.00
2022-08-19T10:38:58.972Z,7.40
2022-08-19T10:45:23.284Z,8.30
2022-08-19T10:51:48.118Z,7.60
2022-08-19T10:58:03.289Z,7.30
2022-08-19T11:04:20.708Z,7.50
2022-08-19T11:10:40.505Z,8.20
2022-08-19T11:17:05.215Z,7.70
2022-08-19T11:23:29.477Z,7.50
2022-08-19T11:29:53.932Z,7.50
2022-08-19T11:36:18.346Z,7.60
2022-08-19T11:42:40.889Z,6.90
2022-08-19T11:48:52.612Z,7.80
2022-08-19T11:54:55.367Z,7.60
2022-08-19T12:01:08.555Z,7.10
2022-08-19T12:07:21.097Z,7.80
2022-08-19T12:13:10.327Z,7.40
2022-08-19T12:19:27.025Z,7.30
2022-08-19T12:25:40.319Z,7.00
2022-08-19T12:32:04.900Z,7.70
2022-08-19T12:38:06.584Z,6.70
2022-08-19T12:44:20.851Z,6.90
2022-08-19T12:50:38.978Z,7.00
2022-08-19T12:56:42.367Z,6.70
2022-08-19T13:02:38.382Z,6.70
2022-08-19T13:08:44.795Z,6.60
2022-08-19T13:15:11.508Z,7.20
2022-08-19T13:21:20.646Z,6.50
2022-08-19T13:33:41.452Z,5.80
2022-08-19T13:39:40.857Z,6.60
2022-08-19T13:46:05.253Z,6.20
2022-08-19T13:52:20.562Z,6.00
2022-08-19T13:58:44.798Z,5.80
2022-08-19T14:04:59.056Z,5.90
2022-08-19T14:10:53.895Z,5.70
2022-08-19T14:16:55.864Z,5.50
2022-08-19T14:22:21.962Z,5.30
2022-08-19T14:28:40.829Z,4.40
2022-08-19T14:35:05.116Z,5.10
2022-08-19T14:40:59.224Z,5.30
2022-08-19T14:47:06.070Z,4.80
2022-08-19T14:53:18.204Z,4.60
2022-08-19T14:59:07.661Z,4.80
2022-08-19T15:05:15.077Z,4.60
2022-08-19T15:11:25.925Z,4.50
2022-08-19T15:17:54.311Z,4.70
2022-08-19T15:24:09.657Z,4.40
2022-08-19T15:30:34.475Z,4.70
2022-08-19T15:36:51.409Z,4.50
2022-08-19T15:43:06.723Z,4.30
2022-08-19T15:49:14.756Z,4.80
2022-08-19T15:55:32.638Z,4.50
2022-08-19T16:01:49.186Z,4.40
2022-08-19T16:07:52.112Z,4.50
2022-08-19T16:13:50.188Z,4.40
2022-08-19T16:19:59.963Z,4.40
2022-08-19T16:26:02.872Z,4.40
2022-08-19T16:31:46.243Z,4.10
2022-08-19T16:38:02.248Z,4.90
2022-08-19T16:44:18.717Z,5.20
2022-08-19T16:50:21.994Z,5.30
2022-08-19T16:56:33.033Z,5.30
2022-08-19T17:02:59.823Z,4.20
2022-08-19T17:09:25.975Z,5.10
2022-08-19T17:15:36.036Z,4.70
2022-08-19T17:21:47.509Z,4.40
2022-08-19T17:28:00.503Z,4.30
2022-08-19T17:34:24.899Z,4.70
2022-08-19T17:40:47.803Z,4.30
2022-08-19T17:47:12.169Z,4.20
2022-08-19T17:53:25.669Z,4.60
2022-08-19T17:59:26.525Z,4.60
2022-08-19T18:05:39.968Z,4.20
2022-08-19T18:12:04.295Z,4.10
2022-08-19T18:18:14.908Z,4.50
2022-08-19T18:24:40.021Z,4.60
2022-08-19T18:31:04.427Z,4.20
2022-08-19T18:37:22.711Z,3.80
2022-08-19T18:43:44.302Z,4.20
2022-08-19T18:50:08.523Z,4.40
2022-08-19T18:56:36.207Z,4.10
2022-08-19T19:02:59.408Z,3.70
2022-08-19T19:09:10.224Z,4.00
2022-08-19T19:15:26.866Z,4.40
2022-08-19T19:21:45.233Z,3.90
2022-08-19T19:28:15.980Z,4.50
2022-08-19T19:34:29.716Z,4.50
2022-08-19T19:40:40.612Z,4.40
2022-08-19T19:46:38.397Z,4.60
2022-08-19T19:52:56.598Z,4.20
2022-08-19T19:59:13.603Z,4.50
2022-08-19T20:05:16.239Z,4.10
2022-08-19T20:11:43.340Z,4.50
2022-08-19T20:17:35.219Z,4.40
2022-08-19T20:23:34.730Z,4.40
2022-08-19T20:29:52.624Z,4.50
2022-08-19T20:36:09.995Z,4.00
2022-08-19T20:42:20.263Z,3.90
2022-08-19T20:48:44.653Z,4.00
2022-08-19T20:54:59.017Z,3.70
2022-08-19T21:01:15.201Z,3.70
2022-08-19T21:07:39.415Z,4.20
2022-08-19T21:13:42.771Z,4.50
2022-08-19T21:20:07.052Z,4.10
2022-08-19T21:26:20.155Z,4.00
2022-08-19T21:32:45.310Z,4.10
2022-08-19T21:39:04.299Z,3.50
2022-08-19T21:45:16.842Z,4.20
2022-08-19T21:51:26.287Z,4.00
2022-08-19T21:57:31.199Z,3.90
2022-08-19T22:03:54.260Z,4.20
2022-08-19T22:09:57.661Z,4.10
2022-08-19T22:16:21.017Z,3.60
2022-08-19T22:22:44.061Z,4.30
2022-08-19T22:29:08.470Z,3.40
2022-08-19T22:35:31.576Z,3.70
2022-08-19T22:41:42.115Z,3.90
2022-08-19T22:47:59.829Z,3.90
2022-08-19T22:54:23.915Z,3.80
2022-08-19T23:00:40.471Z,4.20
2022-08-19T23:07:04.852Z,4.00
2022-08-19T23:13:19.219Z,3.80
2022-08-19T23:19:43.440Z,4.20
2022-08-19T23:26:11.690Z,4.50
2022-08-19T23:32:36.359Z,4.00
2022-08-19T23:38:52.156Z,4.30
2022-08-19T23:45:07.519Z,3.60
2022-08-19T23:51:26.806Z,3.90
2022-08-19T23:57:43.677Z,4.20
